X-preSS Montecervino — 9HA3980 — position and weather

sailwx.info

Track history (hours):
 
Tides and Currents Weather Stations Pressure Air Temp Water Temp Dewpoint Dewpoint Depression Visibility Wind Speed Wind Dir Waves Ship Positions

X-preSS Montecervino

Last reported at 2018-Apr-19 04:48 UTC. Time now 2018-Apr-19 11:16 UTC.
Position N 33°47' W 007°39'.

Length 134 m; draft 7.6 m.

Type: Ship. MMSI: 256677000.

Date/timePositionNaut miles runAvg speedWind from/ knotsBaromVisibWave heightAir tempDewpointWater temp
2018-Apr-19 04:48N 33°47' W 007°39'6 0.5
2018-Apr-18 16:43N 33°49' W 007°45'  
2018-Apr-15 13:17N 35°58' W 005°35'311.5
2018-Apr-15 13:00N 35°59' W 005°31'510.8
2018-Apr-15 12:30N 36°01' W 005°25'610.3
2018-Apr-15 11:57N 36°07' W 005°24'1 2.7
2018-Apr-15 11:28N 36°08' W 005°25'0 0.0
2018-Apr-15 11:00N 36°08' W 005°25'0 0.0
2018-Apr-15 10:21N 36°08' W 005°25'0 0.0
2018-Apr-15 07:56N 36°08' W 005°25'0 0.0
2018-Apr-15 07:17N 36°08' W 005°25'0 0.0
2018-Apr-15 06:48N 36°08' W 005°25'0 0.0
2018-Apr-15 06:13N 36°08' W 005°25'0 0.0
2018-Apr-15 05:49N 36°08' W 005°25'0 0.0
2018-Apr-15 05:28N 36°08' W 005°25'0 0.0
2018-Apr-15 04:55N 36°08' W 005°25'0 0.0
2018-Apr-15 04:18N 36°08' W 005°25'0 0.0
2018-Apr-15 03:45N 36°08' W 005°25'0 0.0
2018-Apr-15 03:24N 36°08' W 005°25'0 0.0
2018-Apr-15 03:00N 36°08' W 005°25'0 0.0
2018-Apr-15 02:30N 36°08' W 005°25'0 0.0
2018-Apr-15 01:53N 36°08' W 005°25'0 0.0
2018-Apr-15 01:17N 36°08' W 005°25'0 0.0
2018-Apr-15 00:59N 36°08' W 005°25'0 0.0
2018-Apr-15 00:23N 36°08' W 005°25'0 0.0
2018-Apr-15 00:00N 36°08' W 005°25'4 3.3
2018-Apr-14 22:39N 36°04' W 005°22'212.4
2018-Apr-14 22:29N 36°04' W 005°19'812.1
2018-Apr-14 21:48N 36°06' W 005°09'209 8.0
2018-Apr-13 19:47N 37°14' W 001°03'513.1
2018-Apr-13 19:26N 37°17' W 000°59'613.0
2018-Apr-13 18:56N 37°21' W 000°53'613.0
2018-Apr-13 18:29N 37°25' W 000°47'712.9
2018-Apr-13 17:58N 37°29' W 000°41'613.3
2018-Apr-13 17:30N 37°34' W 000°35'613.0
2018-Apr-13 17:00N 37°39' W 000°30'612.9
2018-Apr-13 16:30N 37°44' W 000°26'612.9
2018-Apr-13 16:00N 37°49' W 000°21'713.0
2018-Apr-13 15:29N 37°55' W 000°17'613.1
2018-Apr-13 15:00N 38°00' W 000°12'8610.9
2018-Apr-13 07:05N 39°27' W 000°19'1 4.7
2018-Apr-13 06:56N 39°27' W 000°19'0 0.0
2018-Apr-12 22:11N 39°27' W 000°19'0 0.8
2018-Apr-12 22:00N 39°27' W 000°19'3 5.9
2018-Apr-12 21:28N 39°27' W 000°15'3 5.4
2018-Apr-12 21:00N 39°28' W 000°13'0 0.5
2018-Apr-12 20:20N 39°28' W 000°13'2 6.7
2018-Apr-12 19:58N 39°30' W 000°11'13213.6
2018-Apr-12 10:17N 41°01' E 001°54'414.3
2018-Apr-12 10:00N 41°05' E 001°57'714.1
2018-Apr-12 09:30N 41°10' E 002°03'714.2
2018-Apr-12 09:00N 41°15' E 002°09'611.0
2018-Apr-12 08:30N 41°21' E 002°10'1 1.2
2018-Apr-12 07:59N 41°21' E 002°10'0 0.0
2018-Apr-12 07:26N 41°21' E 002°10'0 0.0
2018-Apr-12 06:59N 41°21' E 002°10'0 0.0
2018-Apr-12 06:26N 41°21' E 002°10'0 0.0
2018-Apr-12 05:58N 41°21' E 002°10'0 0.0
2018-Apr-12 04:13N 41°21' E 002°10'0 0.0
2018-Apr-12 03:55N 41°21' E 002°10'0 0.0
2018-Apr-12 03:30N 41°21' E 002°10'0 0.0
2018-Apr-12 03:00N 41°21' E 002°10'0 0.0
2018-Apr-12 02:30N 41°21' E 002°10'0 0.0
2018-Apr-12 02:00N 41°21' E 002°10'0 0.0
2018-Apr-12 01:26N 41°21' E 002°10'0 0.0
2018-Apr-12 00:59N 41°21' E 002°10'0 0.0
2018-Apr-12 00:29N 41°21' E 002°10'0 0.0
2018-Apr-11 23:59N 41°21' E 002°10'0 0.0
2018-Apr-11 23:29N 41°21' E 002°10'0 0.0
2018-Apr-11 22:58N 41°21' E 002°10'0 0.0
2018-Apr-11 22:28N 41°21' E 002°10'0 0.0
2018-Apr-11 21:58N 41°21' E 002°10'0 0.0
2018-Apr-11 21:16N 41°21' E 002°10'0 0.0
2018-Apr-11 20:58N 41°21' E 002°10'0 0.0
2018-Apr-11 20:27N 41°21' E 002°10'0 0.0
2018-Apr-11 20:00N 41°21' E 002°10'0 0.0
2018-Apr-11 19:27N 41°21' E 002°10'0 0.0
2018-Apr-11 18:57N 41°21' E 002°10'0 0.0
2018-Apr-11 18:29N 41°21' E 002°10'0 0.0
2018-Apr-11 17:59N 41°21' E 002°10'0 0.0
2018-Apr-11 17:29N 41°21' E 002°10'0 0.0
2018-Apr-11 16:59N 41°21' E 002°10'0 0.0
2018-Apr-11 16:23N 41°21' E 002°10'0 0.0
2018-Apr-11 15:55N 41°21' E 002°10'0 0.0
2018-Apr-11 15:25N 41°21' E 002°10'0 0.0
2018-Apr-11 14:58N 41°21' E 002°10'0 0.0
2018-Apr-11 14:28N 41°21' E 002°10'0 0.0
2018-Apr-11 14:00N 41°21' E 002°10'0 0.0
2018-Apr-11 13:30N 41°21' E 002°10'0 0.0
2018-Apr-11 13:00N 41°21' E 002°10'0 0.0
2018-Apr-11 12:30N 41°21' E 002°10'0 0.0
2018-Apr-11 11:57N 41°21' E 002°10'0 0.0
2018-Apr-11 11:29N 41°21' E 002°10'0 0.0
2018-Apr-11 10:59N 41°21' E 002°10'0 0.0
2018-Apr-11 10:26N 41°21' E 002°10'0 0.0
2018-Apr-11 09:59N 41°21' E 002°10'0 0.0
2018-Apr-11 09:29N 41°21' E 002°10'0 0.0
2018-Apr-11 08:58N 41°21' E 002°10'0 0.0
2018-Apr-11 08:28N 41°21' E 002°10'0 0.0
2018-Apr-11 07:58N 41°21' E 002°10'0 0.0
2018-Apr-11 07:25N 41°21' E 002°10'0 0.0
2018-Apr-11 07:01N 41°21' E 002°10'0 0.0
2018-Apr-11 06:30N 41°21' E 002°10'0 0.0
2018-Apr-11 06:00N 41°21' E 002°10'0 0.0
2018-Apr-11 05:27N 41°21' E 002°10'0 0.0
2018-Apr-11 05:00N 41°21' E 002°10'0 0.0
2018-Apr-11 04:29N 41°21' E 002°10'0 0.0
2018-Apr-11 03:59N 41°21' E 002°10'0 0.0
2018-Apr-11 03:23N 41°21' E 002°10'0 0.0
2018-Apr-11 02:59N 41°21' E 002°10'0 0.0
2018-Apr-11 02:31N 41°21' E 002°10'0 0.0
2018-Apr-11 01:58N 41°21' E 002°10'0 0.0
2018-Apr-11 01:28N 41°21' E 002°10'0 0.0
2018-Apr-11 00:52N 41°21' E 002°10'0 0.0
2018-Apr-11 00:25N 41°21' E 002°10'0 0.0
2018-Apr-11 00:00N 41°21' E 002°10'0 0.0
2018-Apr-10 23:30N 41°21' E 002°10'0 0.2
2018-Apr-10 23:00N 41°21' E 002°10'3 5.3
2018-Apr-10 22:30N 41°19' E 002°10'3 6.3
2018-Apr-10 22:00N 41°16' E 002°10'2 4.5
2018-Apr-10 21:30N 41°14' E 002°08'713.1
2018-Apr-10 21:00N 41°09' E 002°02'612.7
2018-Apr-10 20:30N 41°04' E 001°57'612.7
2018-Apr-10 20:00N 40°59' E 001°51'13612.4
2018-Apr-10 09:00N 39°26' W 000°19'0 0.0
2018-Apr-10 08:21N 39°26' W 000°19'0 0.0
2018-Apr-10 08:00N 39°26' W 000°19'0 0.0
2018-Apr-10 06:20N 39°26' W 000°19'0 0.0
2018-Apr-10 05:56N 39°26' W 000°19'0 0.0
2018-Apr-10 05:08N 39°26' W 000°19'0 0.0
2018-Apr-10 04:50N 39°26' W 000°19'0 0.0
2018-Apr-10 04:26N 39°26' W 000°19'0 0.0
2018-Apr-10 03:49N 39°26' W 000°19'0 0.0
2018-Apr-10 03:25N 39°26' W 000°19'0 0.0
2018-Apr-10 02:55N 39°26' W 000°19'0 0.0
2018-Apr-10 02:13N 39°26' W 000°19'0 0.0
2018-Apr-10 02:00N 39°26' W 000°19'0 0.0
2018-Apr-10 01:24N 39°26' W 000°19'0 0.0
2018-Apr-10 01:00N 39°26' W 000°19'0 0.0
2018-Apr-10 00:30N 39°26' W 000°19'0 0.0
2018-Apr-10 00:00N 39°26' W 000°19'0 0.0
2018-Apr-09 23:29N 39°26' W 000°19'0 0.0
2018-Apr-09 22:59N 39°26' W 000°19'0 0.0
2018-Apr-09 22:23N 39°26' W 000°19'0 0.0
2018-Apr-09 21:59N 39°26' W 000°19'0 0.0
2018-Apr-09 21:28N 39°26' W 000°19'0 0.0
2018-Apr-09 20:58N 39°26' W 000°19'0 0.0
2018-Apr-09 20:22N 39°26' W 000°19'0 0.0
2018-Apr-09 19:52N 39°26' W 000°19'0 0.0
2018-Apr-09 19:22N 39°26' W 000°19'0 0.0
2018-Apr-09 18:57N 39°26' W 000°19'0 0.0
2018-Apr-09 18:21N 39°26' W 000°19'1 1.7
2018-Apr-09 18:00N 39°27' W 000°19'1 0.1
2018-Apr-09 09:58N 39°27' W 000°19'  
Track history (hours):
 
Tides and Currents Weather Stations Pressure Air Temp Water Temp Dewpoint Dewpoint Depression Visibility Wind Speed Wind Dir Waves Ship Positions

X-preSS Montecervino

Last reported at 2018-Apr-19 04:48 UTC. Time now 2018-Apr-19 11:16 UTC.
Position N 33°47' W 007°39'.

Length 134 m; draft 7.6 m.

Type: Ship. MMSI: 256677000.

Date/timePositionNaut miles runAvg speedWind from/ knotsBaromVisibWave heightAir tempDewpointWater temp
2018-Apr-19 04:48N 33°47' W 007°39'6 0.5
2018-Apr-18 16:43N 33°49' W 007°45'  
2018-Apr-15 13:17N 35°58' W 005°35'311.5
2018-Apr-15 13:00N 35°59' W 005°31'510.8
2018-Apr-15 12:30N 36°01' W 005°25'610.3
2018-Apr-15 11:57N 36°07' W 005°24'1 2.7
2018-Apr-15 11:28N 36°08' W 005°25'0 0.0
2018-Apr-15 11:00N 36°08' W 005°25'0 0.0
2018-Apr-15 10:21N 36°08' W 005°25'0 0.0
2018-Apr-15 07:56N 36°08' W 005°25'0 0.0
2018-Apr-15 07:17N 36°08' W 005°25'0 0.0
2018-Apr-15 06:48N 36°08' W 005°25'0 0.0
2018-Apr-15 06:13N 36°08' W 005°25'0 0.0
2018-Apr-15 05:49N 36°08' W 005°25'0 0.0
2018-Apr-15 05:28N 36°08' W 005°25'0 0.0
2018-Apr-15 04:55N 36°08' W 005°25'0 0.0
2018-Apr-15 04:18N 36°08' W 005°25'0 0.0
2018-Apr-15 03:45N 36°08' W 005°25'0 0.0
2018-Apr-15 03:24N 36°08' W 005°25'0 0.0
2018-Apr-15 03:00N 36°08' W 005°25'0 0.0
2018-Apr-15 02:30N 36°08' W 005°25'0 0.0
2018-Apr-15 01:53N 36°08' W 005°25'0 0.0
2018-Apr-15 01:17N 36°08' W 005°25'0 0.0
2018-Apr-15 00:59N 36°08' W 005°25'0 0.0
2018-Apr-15 00:23N 36°08' W 005°25'0 0.0
2018-Apr-15 00:00N 36°08' W 005°25'4 3.3
2018-Apr-14 22:39N 36°04' W 005°22'212.4
2018-Apr-14 22:29N 36°04' W 005°19'812.1
2018-Apr-14 21:48N 36°06' W 005°09'209 8.0
2018-Apr-13 19:47N 37°14' W 001°03'513.1
2018-Apr-13 19:26N 37°17' W 000°59'613.0
2018-Apr-13 18:56N 37°21' W 000°53'613.0
2018-Apr-13 18:29N 37°25' W 000°47'712.9
2018-Apr-13 17:58N 37°29' W 000°41'613.3
2018-Apr-13 17:30N 37°34' W 000°35'613.0
2018-Apr-13 17:00N 37°39' W 000°30'612.9
2018-Apr-13 16:30N 37°44' W 000°26'612.9
2018-Apr-13 16:00N 37°49' W 000°21'713.0
2018-Apr-13 15:29N 37°55' W 000°17'613.1
2018-Apr-13 15:00N 38°00' W 000°12'8610.9
2018-Apr-13 07:05N 39°27' W 000°19'1 4.7
2018-Apr-13 06:56N 39°27' W 000°19'0 0.0
2018-Apr-12 22:11N 39°27' W 000°19'0 0.8
2018-Apr-12 22:00N 39°27' W 000°19'3 5.9
2018-Apr-12 21:28N 39°27' W 000°15'3 5.4
2018-Apr-12 21:00N 39°28' W 000°13'0 0.5
2018-Apr-12 20:20N 39°28' W 000°13'2 6.7
2018-Apr-12 19:58N 39°30' W 000°11'13213.6
2018-Apr-12 10:17N 41°01' E 001°54'414.3
2018-Apr-12 10:00N 41°05' E 001°57'714.1
2018-Apr-12 09:30N 41°10' E 002°03'714.2
2018-Apr-12 09:00N 41°15' E 002°09'611.0
2018-Apr-12 08:30N 41°21' E 002°10'1 1.2
2018-Apr-12 07:59N 41°21' E 002°10'0 0.0
2018-Apr-12 07:26N 41°21' E 002°10'0 0.0
2018-Apr-12 06:59N 41°21' E 002°10'0 0.0
2018-Apr-12 06:26N 41°21' E 002°10'0 0.0
2018-Apr-12 05:58N 41°21' E 002°10'0 0.0
2018-Apr-12 04:13N 41°21' E 002°10'0 0.0
2018-Apr-12 03:55N 41°21' E 002°10'0 0.0
2018-Apr-12 03:30N 41°21' E 002°10'0 0.0
2018-Apr-12 03:00N 41°21' E 002°10'0 0.0
2018-Apr-12 02:30N 41°21' E 002°10'0 0.0
2018-Apr-12 02:00N 41°21' E 002°10'0 0.0
2018-Apr-12 01:26N 41°21' E 002°10'0 0.0
2018-Apr-12 00:59N 41°21' E 002°10'0 0.0
2018-Apr-12 00:29N 41°21' E 002°10'0 0.0
2018-Apr-11 23:59N 41°21' E 002°10'0 0.0
2018-Apr-11 23:29N 41°21' E 002°10'0 0.0
2018-Apr-11 22:58N 41°21' E 002°10'0 0.0
2018-Apr-11 22:28N 41°21' E 002°10'0 0.0
2018-Apr-11 21:58N 41°21' E 002°10'0 0.0
2018-Apr-11 21:16N 41°21' E 002°10'0 0.0
2018-Apr-11 20:58N 41°21' E 002°10'0 0.0
2018-Apr-11 20:27N 41°21' E 002°10'0 0.0
2018-Apr-11 20:00N 41°21' E 002°10'0 0.0
2018-Apr-11 19:27N 41°21' E 002°10'0 0.0
2018-Apr-11 18:57N 41°21' E 002°10'0 0.0
2018-Apr-11 18:29N 41°21' E 002°10'0 0.0
2018-Apr-11 17:59N 41°21' E 002°10'0 0.0
2018-Apr-11 17:29N 41°21' E 002°10'0 0.0
2018-Apr-11 16:59N 41°21' E 002°10'0 0.0
2018-Apr-11 16:23N 41°21' E 002°10'0 0.0
2018-Apr-11 15:55N 41°21' E 002°10'0 0.0
2018-Apr-11 15:25N 41°21' E 002°10'0 0.0
2018-Apr-11 14:58N 41°21' E 002°10'0 0.0
2018-Apr-11 14:28N 41°21' E 002°10'0 0.0
2018-Apr-11 14:00N 41°21' E 002°10'0 0.0
2018-Apr-11 13:30N 41°21' E 002°10'0 0.0
2018-Apr-11 13:00N 41°21' E 002°10'0 0.0
2018-Apr-11 12:30N 41°21' E 002°10'0 0.0
2018-Apr-11 11:57N 41°21' E 002°10'0 0.0
2018-Apr-11 11:29N 41°21' E 002°10'0 0.0
2018-Apr-11 10:59N 41°21' E 002°10'0 0.0
2018-Apr-11 10:26N 41°21' E 002°10'0 0.0
2018-Apr-11 09:59N 41°21' E 002°10'0 0.0
2018-Apr-11 09:29N 41°21' E 002°10'0 0.0
2018-Apr-11 08:58N 41°21' E 002°10'0 0.0
2018-Apr-11 08:28N 41°21' E 002°10'0 0.0
2018-Apr-11 07:58N 41°21' E 002°10'0 0.0
2018-Apr-11 07:25N 41°21' E 002°10'0 0.0
2018-Apr-11 07:01N 41°21' E 002°10'0 0.0
2018-Apr-11 06:30N 41°21' E 002°10'0 0.0
2018-Apr-11 06:00N 41°21' E 002°10'0 0.0
2018-Apr-11 05:27N 41°21' E 002°10'0 0.0
2018-Apr-11 05:00N 41°21' E 002°10'0 0.0
2018-Apr-11 04:29N 41°21' E 002°10'0 0.0
2018-Apr-11 03:59N 41°21' E 002°10'0 0.0
2018-Apr-11 03:23N 41°21' E 002°10'0 0.0
2018-Apr-11 02:59N 41°21' E 002°10'0 0.0
2018-Apr-11 02:31N 41°21' E 002°10'0 0.0
2018-Apr-11 01:58N 41°21' E 002°10'0 0.0
2018-Apr-11 01:28N 41°21' E 002°10'0 0.0
2018-Apr-11 00:52N 41°21' E 002°10'0 0.0
2018-Apr-11 00:25N 41°21' E 002°10'0 0.0
2018-Apr-11 00:00N 41°21' E 002°10'0 0.0
2018-Apr-10 23:30N 41°21' E 002°10'0 0.2
2018-Apr-10 23:00N 41°21' E 002°10'3 5.3
2018-Apr-10 22:30N 41°19' E 002°10'3 6.3
2018-Apr-10 22:00N 41°16' E 002°10'2 4.5
2018-Apr-10 21:30N 41°14' E 002°08'713.1
2018-Apr-10 21:00N 41°09' E 002°02'612.7
2018-Apr-10 20:30N 41°04' E 001°57'612.7
2018-Apr-10 20:00N 40°59' E 001°51'13612.4
2018-Apr-10 09:00N 39°26' W 000°19'0 0.0
2018-Apr-10 08:21N 39°26' W 000°19'0 0.0
2018-Apr-10 08:00N 39°26' W 000°19'0 0.0
2018-Apr-10 06:20N 39°26' W 000°19'0 0.0
2018-Apr-10 05:56N 39°26' W 000°19'0 0.0
2018-Apr-10 05:08N 39°26' W 000°19'0 0.0
2018-Apr-10 04:50N 39°26' W 000°19'0 0.0
2018-Apr-10 04:26N 39°26' W 000°19'0 0.0
2018-Apr-10 03:49N 39°26' W 000°19'0 0.0
2018-Apr-10 03:25N 39°26' W 000°19'0 0.0
2018-Apr-10 02:55N 39°26' W 000°19'0 0.0
2018-Apr-10 02:13N 39°26' W 000°19'0 0.0
2018-Apr-10 02:00N 39°26' W 000°19'0 0.0
2018-Apr-10 01:24N 39°26' W 000°19'0 0.0
2018-Apr-10 01:00N 39°26' W 000°19'0 0.0
2018-Apr-10 00:30N 39°26' W 000°19'0 0.0
2018-Apr-10 00:00N 39°26' W 000°19'0 0.0
2018-Apr-09 23:29N 39°26' W 000°19'0 0.0
2018-Apr-09 22:59N 39°26' W 000°19'0 0.0
2018-Apr-09 22:23N 39°26' W 000°19'0 0.0
2018-Apr-09 21:59N 39°26' W 000°19'0 0.0
2018-Apr-09 21:28N 39°26' W 000°19'0 0.0
2018-Apr-09 20:58N 39°26' W 000°19'0 0.0
2018-Apr-09 20:22N 39°26' W 000°19'0 0.0
2018-Apr-09 19:52N 39°26' W 000°19'0 0.0
2018-Apr-09 19:22N 39°26' W 000°19'0 0.0
2018-Apr-09 18:57N 39°26' W 000°19'0 0.0
2018-Apr-09 18:21N 39°26' W 000°19'1 1.7
2018-Apr-09 18:00N 39°27' W 000°19'1 0.1
2018-Apr-09 09:58N 39°27' W 000°19'  

Dump ship's entire track history